Mesquita, Brazil
Current Conditions -  °F | °C
As of 4:00 PM on Thursday 27 Nov 2014 (Local Time) from SBIP Reporting Station
Broken Clouds Broken Clouds  
Wind Chill: 88°   Ceiling: 8000
Heat Index: 90°   Visibility: 6mi
Dew Point: 66°   Wind: 6mph
Humidity: 49%   Direction: 60°ENE
Pressure: 29.8"   Gusts: NA
Location:  19.22°S, 42.61°W
Report Text: SBIP 271800Z 06005KT 9999 SCT025 SCT035 BKN080 31/19 Q1009
Loading
Personal Weather Stations






























Interactive Weather Map New forecast layout! Learn more

10-Day Weather Forecast

Advertisements
Track Severe Weather on mobile